Time;durP1;ratioP1;P1;durP2;ratioP2;P2;SDS_P1;SDS_P2;PMS_P1;PMS_P2;Temp;Humidity;BMP_temperature;BMP_pressure;BME280_temperature;BME280_humidity;BME280_pressure;Samples;Min_cycle;Max_cycle;Signal;HPM_P1;HPM_P2
2023/03/27 00:02:01;;;;;;;13.80;7.55;;;;;;;8.63;100.00;98930.84;1704637;84;21276;-82
2023/03/27 00:05:12;;;;;;;8.78;7.05;;;;;;;8.66;100.00;98933.19;1704969;84;21173;-82
2023/03/27 00:08:19;;;;;;;11.25;7.95;;;;;;;8.63;100.00;98930.32;1703999;84;21236;-82
2023/03/27 00:11:26;;;;;;;13.95;7.50;;;;;;;8.61;100.00;98924.73;1703712;84;21244;-82
2023/03/27 00:14:26;;;;;;;13.28;8.18;;;;;;;8.65;100.00;98925.50;1705014;84;21752;-82
2023/03/27 00:17:19;;;;;;;10.93;7.58;;;;;;;8.67;100.00;98921.23;1704248;84;21204;-82
2023/03/27 00:20:28;;;;;;;13.00;7.95;;;;;;;8.72;100.00;98925.57;1704033;84;22416;-82
2023/03/27 00:23:35;;;;;;;9.83;6.83;;;;;;;8.72;100.00;98921.48;1697086;84;21207;-81
2023/03/27 00:26:41;;;;;;;9.08;6.35;;;;;;;8.66;100.00;98925.84;1690883;84;21252;-82
2023/03/27 00:29:40;;;;;;;12.65;7.12;;;;;;;8.67;100.00;98919.87;1676647;85;21276;-82
2023/03/27 00:32:47;;;;;;;12.33;6.92;;;;;;;8.63;100.00;98913.13;1675839;83;21779;-82
2023/03/27 00:35:53;;;;;;;9.50;6.28;;;;;;;8.64;100.00;98922.98;1675543;85;21807;-81
2023/03/27 00:38:58;;;;;;;12.90;7.97;;;;;;;8.64;100.00;98921.62;1675795;85;21253;-82
2023/03/27 00:42:05;;;;;;;11.43;6.83;;;;;;;8.63;100.00;98926.23;1676940;85;21264;-82
2023/03/27 00:45:11;;;;;;;21.20;8.18;;;;;;;8.62;100.00;98925.08;1677059;85;21748;-82
2023/03/27 00:48:18;;;;;;;14.73;8.23;;;;;;;8.59;100.00;98926.30;1676592;83;21776;-82
2023/03/27 00:51:27;;;;;;;13.80;8.28;;;;;;;8.59;100.00;98922.73;1676821;85;21217;-81
2023/03/27 00:54:37;;;;;;;11.57;7.53;;;;;;;8.60;100.00;98923.05;1677057;85;21253;-82
2023/03/27 00:57:42;;;;;;;16.23;8.33;;;;;;;8.55;100.00;98920.91;1676875;85;21864;-82
2023/03/27 01:00:42;;;;;;;16.05;8.28;;;;;;;8.54;100.00;98932.02;1676756;85;21250;-81
2023/03/27 01:03:51;;;;;;;14.33;8.98;;;;;;;8.63;100.00;98933.56;1676089;85;21221;-82
2023/03/27 01:06:59;;;;;;;15.78;8.83;;;;;;;8.55;100.00;98936.42;1676594;85;21210;-81
2023/03/27 01:10:08;;;;;;;20.00;11.22;;;;;;;8.56;100.00;98935.38;1656364;85;21217;-84
2023/03/27 01:13:36;;;;;;;23.92;12.37;;;;;;;8.59;100.00;98935.84;1676302;85;21261;-84
2023/03/27 01:17:15;;;;;;;14.47;9.73;;;;;;;8.56;100.00;98939.47;1664328;85;21332;-84
2023/03/27 01:20:59;;;;;;;17.10;10.20;;;;;;;8.61;100.00;98946.53;1670173;84;21276;-84
2023/03/27 01:25:00;;;;;;;16.07;10.60;;;;;;;8.53;100.00;98950.78;1675540;85;21244;-84
2023/03/27 01:28:36;;;;;;;15.53;10.35;;;;;;;8.60;100.00;98962.05;1676466;85;21197;-82
2023/03/27 01:32:03;;;;;;;16.65;11.22;;;;;;;8.48;100.00;98970.45;1676684;85;21221;-82
2023/03/27 01:35:25;;;;;;;18.70;11.20;;;;;;;8.56;100.00;98972.17;1676653;85;21787;-82
2023/03/27 01:39:17;;;;;;;17.55;11.30;;;;;;;8.56;100.00;98971.69;1676561;85;21225;-82
2023/03/27 01:42:36;;;;;;;19.65;11.70;;;;;;;8.58;100.00;98970.11;1676764;85;21544;-82
2023/03/27 01:46:02;;;;;;;18.60;11.13;;;;;;;8.67;100.00;98961.59;1676791;85;21185;-82
2023/03/27 01:49:16;;;;;;;20.32;12.23;;;;;;;8.72;100.00;98970.55;1674491;85;21795;-82
2023/03/27 01:52:27;;;;;;;21.87;13.35;;;;;;;8.70;100.00;98968.03;1676547;85;21210;-82
2023/03/27 01:55:36;;;;;;;22.58;14.55;;;;;;;8.73;100.00;98966.78;1676519;85;21189;-82
2023/03/27 01:58:51;;;;;;;21.68;14.07;;;;;;;8.82;100.00;98961.50;1675258;85;21261;-82
2023/03/27 02:02:11;;;;;;;24.77;15.40;;;;;;;8.75;100.00;98968.80;1676517;85;21214;-82
2023/03/27 02:05:33;;;;;;;24.70;15.13;;;;;;;8.70;100.00;98965.30;1676547;85;21213;-82
2023/03/27 02:08:45;;;;;;;27.45;16.50;;;;;;;8.70;100.00;98957.62;1676024;85;21229;-82
2023/03/27 02:12:12;;;;;;;34.88;20.43;;;;;;;8.75;100.00;98956.53;1676564;85;21312;-82
2023/03/27 02:15:23;;;;;;;38.58;21.40;;;;;;;8.77;100.00;98957.16;1675396;85;21201;-81
2023/03/27 02:18:33;;;;;;;29.12;17.90;;;;;;;8.76;100.00;98954.65;1676615;85;21799;-82
2023/03/27 02:21:40;;;;;;;28.75;16.82;;;;;;;8.75;100.00;98950.21;1676549;85;21205;-82
2023/03/27 02:24:45;;;;;;;24.92;15.20;;;;;;;8.70;100.00;98950.31;1675479;85;21803;-82
2023/03/27 02:27:52;;;;;;;27.07;16.20;;;;;;;8.72;100.00;98956.08;1676557;85;21783;-82
2023/03/27 02:31:28;;;;;;;27.00;17.42;;;;;;;8.76;100.00;98958.73;1676590;85;21213;-82
2023/03/27 02:34:57;;;;;;;37.03;20.12;;;;;;;8.76;100.00;98955.48;1675864;85;21283;-82
2023/03/27 02:38:16;;;;;;;30.48;18.67;;;;;;;8.78;100.00;98956.64;1675287;85;21209;-81
2023/03/27 02:41:31;;;;;;;23.50;16.12;;;;;;;8.81;100.00;98957.09;1675287;85;21229;-82
2023/03/27 02:45:01;;;;;;;26.33;17.82;;;;;;;8.77;100.00;98947.63;1675713;85;21253;-82
2023/03/27 02:48:17;;;;;;;26.10;16.50;;;;;;;8.81;100.00;98952.17;1676489;85;21213;-82
2023/03/27 02:51:33;;;;;;;24.70;16.15;;;;;;;8.83;100.00;98959.09;1669305;83;21287;-82
2023/03/27 02:54:44;;;;;;;27.62;17.02;;;;;;;8.81;100.00;98973.98;1667840;86;21247;-81
2023/03/27 02:57:50;;;;;;;28.90;19.82;;;;;;;8.75;100.00;98976.98;1668656;86;21195;-82
2023/03/27 03:01:00;;;;;;;31.02;20.23;;;;;;;8.80;100.00;98977.72;1668697;86;21180;-82
2023/03/27 03:04:23;;;;;;;33.30;21.25;;;;;;;8.71;100.00;98974.33;1669839;84;21290;-82
2023/03/27 03:07:37;;;;;;;32.20;20.48;;;;;;;8.71;100.00;98975.69;1668604;86;21496;-81
2023/03/27 03:10:43;;;;;;;37.75;19.82;;;;;;;8.67;100.00;98986.13;1667383;86;21286;-82
2023/03/27 03:13:50;;;;;;;38.08;22.22;;;;;;;8.64;100.00;98981.59;1668656;86;21200;-82
2023/03/27 03:16:57;;;;;;;42.33;24.02;;;;;;;8.66;100.00;98981.73;1668510;86;21750;-82
2023/03/27 03:20:04;;;;;;;34.40;22.93;;;;;;;8.65;100.00;98977.81;1667307;86;21798;-82
2023/03/27 03:23:12;;;;;;;37.73;22.65;;;;;;;8.71;100.00;98975.69;1669657;86;21220;-81
2023/03/27 03:26:18;;;;;;;41.35;22.45;;;;;;;8.78;100.00;98968.91;1668375;86;21235;-82
2023/03/27 03:29:29;;;;;;;38.42;22.85;;;;;;;8.69;100.00;98972.30;1650553;87;21289;-81
2023/03/27 03:32:34;;;;;;;;;;;;;;;8.69;100.00;98960.87;1715565;83;21828;-82
2023/03/27 03:35:38;;;;;;;41.63;22.42;;;;;;;8.71;100.00;98956.60;1713358;83;20224;-81
2023/03/27 03:38:49;;;;;;;31.35;17.87;;;;;;;8.69;100.00;98962.75;1714198;83;21749;-81
2023/03/27 03:41:56;;;;;;;30.08;16.87;;;;;;;8.61;100.00;98972.42;1714225;83;21207;-82
2023/03/27 03:45:01;;;;;;;34.63;17.87;;;;;;;8.58;100.00;98976.41;1713796;83;21230;-82
2023/03/27 03:48:07;;;;;;;30.70;18.30;;;;;;;8.50;100.00;98987.43;1714199;83;21182;-82
2023/03/27 03:51:13;;;;;;;54.03;19.50;;;;;;;8.45;100.00;98985.81;1704158;83;21214;-83
2023/03/27 03:54:19;;;;;;;51.58;19.70;;;;;;;8.40;100.00;98998.66;1691085;85;21250;-82
2023/03/27 03:57:26;;;;;;;40.85;19.48;;;;;;;8.43;100.00;99003.73;1691102;85;21188;-82
2023/03/27 04:00:39;;;;;;;;;;;;;;;8.43;100.00;99002.89;1693642;85;21211;-82
2023/03/27 04:03:51;;;;;;;44.13;20.35;;;;;;;8.46;100.00;99012.02;1691230;85;20244;-82
2023/03/27 04:06:58;;;;;;;40.65;19.98;;;;;;;8.42;100.00;99011.59;1693315;83;21251;-81
2023/03/27 04:10:07;;;;;;;32.15;17.48;;;;;;;8.45;100.00;99012.54;1690940;85;21274;-81
2023/03/27 04:13:15;;;;;;;39.73;19.67;;;;;;;8.55;100.00;99011.38;1691092;85;21192;-82
2023/03/27 04:16:23;;;;;;;28.60;18.05;;;;;;;8.60;100.00;99013.83;1690185;85;21766;-82
2023/03/27 04:19:31;;;;;;;39.40;19.85;;;;;;;8.56;100.00;99015.78;1691057;85;21192;-82
2023/03/27 04:22:38;;;;;;;42.20;18.95;;;;;;;8.63;100.00;99026.24;1717149;83;21203;-82
2023/03/27 04:25:37;;;;;;;28.95;15.93;;;;;;;8.58;100.00;99025.98;1690458;85;21227;-82
2023/03/27 04:28:33;;;;;;;25.92;15.98;;;;;;;8.53;100.00;99029.30;1690996;85;21247;-82
2023/03/27 04:31:21;;;;;;;26.42;16.32;;;;;;;8.53;100.00;99039.35;1693787;83;21215;-81
2023/03/27 04:34:19;;;;;;;25.23;15.25;;;;;;;8.48;100.00;99045.91;1688528;85;22561;-82
2023/03/27 04:37:18;;;;;;;30.27;17.85;;;;;;;8.51;100.00;99042.78;1690884;83;21223;-82
2023/03/27 04:40:29;;;;;;;24.37;16.15;;;;;;;8.62;100.00;99048.57;1691097;85;21400;-81
2023/03/27 04:43:38;;;;;;;30.40;18.73;;;;;;;8.63;100.00;99044.80;1691171;85;21207;-82
2023/03/27 04:46:43;;;;;;;22.67;15.90;;;;;;;8.68;100.00;99048.31;1690204;85;21227;-82
2023/03/27 04:49:45;;;;;;;29.18;17.32;;;;;;;8.81;100.00;99050.33;1691039;85;21207;-81
2023/03/27 04:52:46;;;;;;;36.28;18.42;;;;;;;8.89;100.00;99061.95;1700369;83;21246;-81
2023/03/27 04:55:49;;;;;;;29.82;18.12;;;;;;;8.96;100.00;99058.74;1714051;83;21234;-82
2023/03/27 04:58:57;;;;;;;30.40;18.50;;;;;;;8.96;100.00;99061.47;1714426;83;22539;-82
2023/03/27 05:02:02;;;;;;;34.00;19.35;;;;;;;9.01;100.00;99061.41;1714287;83;21214;-82
2023/03/27 05:05:10;;;;;;;38.95;22.62;;;;;;;9.01;100.00;99065.49;1714574;83;21206;-82
2023/03/27 05:08:16;;;;;;;37.60;22.15;;;;;;;9.13;100.00;99067.50;1712956;83;21250;-82
2023/03/27 05:11:18;;;;;;;39.70;23.85;;;;;;;9.18;100.00;99071.00;1735829;82;21241;-82
2023/03/27 05:14:28;;;;;;;42.90;24.27;;;;;;;9.29;100.00;99064.99;1712964;83;21205;-83
2023/03/27 05:17:39;;;;;;;40.83;24.10;;;;;;;9.38;100.00;99072.52;1714699;82;21210;-82
2023/03/27 05:20:50;;;;;;;41.45;24.50;;;;;;;9.43;100.00;99072.76;1712835;83;21218;-82
2023/03/27 05:23:57;;;;;;;38.73;25.40;;;;;;;9.54;100.00;99082.27;1709938;82;21194;-81
2023/03/27 05:27:03;;;;;;;43.70;26.07;;;;;;;9.60;100.00;99085.06;1711626;82;21504;-82
2023/03/27 05:30:12;;;;;;;45.08;27.22;;;;;;;9.64;100.00;99082.76;1711738;82;21207;-82
2023/03/27 05:33:19;;;;;;;46.63;27.67;;;;;;;9.69;100.00;99091.19;1687680;83;21763;-82
2023/03/27 05:36:28;;;;;;;42.90;26.42;;;;;;;9.77;100.00;99092.93;1718696;83;21208;-82
2023/03/27 05:39:36;;;;;;;44.15;29.12;;;;;;;9.83;100.00;99099.78;1705563;83;21759;-81
2023/03/27 05:42:46;;;;;;;44.40;26.90;;;;;;;9.96;100.00;99106.69;1695617;84;21192;-82
2023/03/27 05:45:52;;;;;;;43.60;25.80;;;;;;;10.08;100.00;99107.52;1687813;84;21534;-82
2023/03/27 05:51:33;;;;;;;43.17;29.27;;;;;;;10.11;100.00;99110.66;1826289;76;28074;-82
2023/03/27 05:54:42;;;;;;;44.85;28.83;;;;;;;10.11;100.00;99111.19;1788382;79;21785;-82
2023/03/27 05:57:48;;;;;;;41.50;26.00;;;;;;;10.15;100.00;99118.77;1788631;79;21134;-82
2023/03/27 06:00:54;;;;;;;51.35;32.60;;;;;;;10.17;100.00;99126.27;1810715;79;21133;-82
2023/03/27 06:04:00;;;;;;;48.25;32.75;;;;;;;10.13;100.00;99124.98;1774764;80;21137;-82
2023/03/27 06:07:19;;;;;;;53.75;35.68;;;;;;;10.16;100.00;99128.68;1774135;80;21164;-82
2023/03/27 06:10:32;;;;;;;55.98;35.75;;;;;;;10.22;100.00;99136.59;1743242;82;21789;-83
2023/03/27 06:13:53;;;;;;;60.35;37.13;;;;;;;10.24;100.00;99142.71;1747524;82;21204;-82
2023/03/27 06:17:01;;;;;;;61.35;39.63;;;;;;;10.34;100.00;99158.21;1742211;80;21202;-82
2023/03/27 06:20:14;;;;;;;57.83;37.98;;;;;;;10.43;100.00;99154.27;1769238;80;21505;-82
2023/03/27 06:23:19;;;;;;;58.55;38.67;;;;;;;10.53;100.00;99162.61;1754728;80;21244;-82
2023/03/27 06:26:27;;;;;;;64.87;37.70;;;;;;;10.52;100.00;99159.56;1753137;80;21193;-83
2023/03/27 06:29:36;;;;;;;60.52;38.75;;;;;;;10.55;100.00;99162.73;1746276;79;21165;-82
2023/03/27 06:32:42;;;;;;;60.33;38.38;;;;;;;10.90;100.00;99168.11;1739491;82;21216;-82
2023/03/27 06:35:48;;;;;;;55.40;36.98;;;;;;;11.05;100.00;99174.24;1737697;82;21208;-82
2023/03/27 06:38:56;;;;;;;62.35;41.13;;;;;;;11.15;100.00;99180.19;1714086;83;21202;-82
2023/03/27 06:42:04;;;;;;;63.30;41.70;;;;;;;11.10;100.00;99186.78;1678313;83;21190;-82
2023/03/27 06:45:16;;;;;;;62.27;40.50;;;;;;;11.09;99.78;99188.36;1702167;83;21173;-83
2023/03/27 06:48:30;;;;;;;57.70;37.88;;;;;;;11.33;98.31;99186.94;1667792;82;21197;-82
2023/03/27 06:51:37;;;;;;;62.83;41.53;;;;;;;11.29;98.32;99189.23;1685398;83;21761;-82
2023/03/27 06:54:45;;;;;;;52.88;35.03;;;;;;;11.30;98.92;99201.89;1690873;84;21205;-82
2023/03/27 06:57:57;;;;;;;45.88;33.25;;;;;;;11.30;98.63;99204.63;1753571;81;21253;-81
2023/03/27 07:01:04;;;;;;;38.45;28.52;;;;;;;11.37;97.42;99198.63;1752901;81;21211;-82
2023/03/27 07:04:16;;;;;;;44.27;32.40;;;;;;;11.49;96.65;99207.92;1762186;81;21307;-82
2023/03/27 07:07:25;;;;;;;45.85;30.77;;;;;;;11.70;96.04;99208.77;1759659;81;21173;-82
2023/03/27 07:10:31;;;;;;;41.25;28.57;;;;;;;11.84;95.14;99211.86;1749904;81;21169;-82
2023/03/27 07:13:39;;;;;;;42.00;27.55;;;;;;;11.94;94.56;99205.42;1743396;81;21149;-82
2023/03/27 07:16:52;;;;;;;33.65;24.47;;;;;;;11.91;92.45;99222.30;1753517;81;21157;-82
2023/03/27 07:20:13;;;;;;;36.08;25.60;;;;;;;11.88;92.34;99219.97;1756420;81;21153;-82
2023/03/27 07:23:18;;;;;;;35.38;24.15;;;;;;;11.97;91.71;99213.23;1758860;81;21201;-82
2023/03/27 07:26:33;;;;;;;32.98;21.10;;;;;;;11.89;91.38;99213.96;1751820;81;21202;-82
2023/03/27 07:29:41;;;;;;;33.18;22.45;;;;;;;11.97;90.24;99206.38;1758880;80;21169;-82
2023/03/27 07:32:50;;;;;;;30.92;20.17;;;;;;;11.95;90.57;99210.37;1759310;81;21210;-82
2023/03/27 07:35:57;;;;;;;32.70;23.60;;;;;;;12.09;90.80;99201.61;1752287;80;21229;-82
2023/03/27 07:39:11;;;;;;;40.80;27.50;;;;;;;12.03;90.29;99197.83;1744390;81;21242;-82
2023/03/27 07:42:18;;;;;;;37.05;25.48;;;;;;;11.84;89.54;99194.05;1749446;80;21162;-82
2023/03/27 07:45:28;;;;;;;29.63;22.77;;;;;;;11.79;91.37;99193.81;1737655;81;21201;-82
2023/03/27 07:48:34;;;;;;;25.60;21.02;;;;;;;11.85;91.66;99191.61;1762312;81;22065;-82
2023/03/27 07:51:44;;;;;;;19.27;14.98;;;;;;;11.94;91.76;99188.98;1752168;81;22106;-83
2023/03/27 07:54:52;;;;;;;19.48;14.47;;;;;;;12.08;89.55;99186.22;1765927;81;21443;-82
2023/03/27 07:57:54;;;;;;;19.82;15.55;;;;;;;12.22;87.62;99191.47;1767545;81;21209;-82
2023/03/27 08:00:54;;;;;;;26.15;18.10;;;;;;;12.20;87.72;99198.23;1756424;81;21162;-82
2023/03/27 08:03:38;;;;;;;22.80;17.27;;;;;;;12.42;89.14;99196.05;1766156;81;21216;-82
2023/03/27 08:06:44;;;;;;;23.18;16.60;;;;;;;12.64;88.80;99196.62;1769382;81;21185;-82
2023/03/27 08:09:52;;;;;;;20.48;15.05;;;;;;;12.75;89.98;99186.33;1757444;81;21175;-81
2023/03/27 08:12:59;;;;;;;20.57;15.55;;;;;;;12.82;87.86;99189.91;1744297;81;21224;-81
2023/03/27 08:16:16;;;;;;;23.77;17.02;;;;;;;12.91;87.02;99195.45;1753605;81;21173;-83
2023/03/27 08:19:22;;;;;;;19.15;14.03;;;;;;;13.03;87.17;99195.09;1762092;81;21245;-83
2023/03/27 08:22:21;;;;;;;19.25;15.53;;;;;;;13.11;88.61;99193.14;1768524;81;21181;-83
2023/03/27 08:25:21;;;;;;;15.70;12.37;;;;;;;13.17;85.72;99193.09;1711643;79;21180;-83
2023/03/27 08:28:07;;;;;;;17.17;11.60;;;;;;;13.26;85.92;99202.78;1752071;81;21191;-83
2023/03/27 08:31:18;;;;;;;19.42;13.35;;;;;;;13.28;83.67;99200.67;1766139;81;21153;-83
2023/03/27 08:34:28;;;;;;;17.45;14.00;;;;;;;13.43;83.72;99207.77;1770005;81;21200;-83
2023/03/27 08:37:35;;;;;;;20.75;15.08;;;;;;;13.52;82.81;99206.44;1765609;81;22229;-83
2023/03/27 08:40:47;;;;;;;15.00;10.35;;;;;;;13.58;83.64;99204.70;1725954;79;21224;-83
2023/03/27 08:43:56;;;;;;;14.35;11.53;;;;;;;13.61;81.22;99199.61;1763664;81;21233;-83
2023/03/27 08:47:27;;;;;;;20.45;14.03;;;;;;;13.68;82.13;99198.17;1768075;81;21154;-83
2023/03/27 08:50:53;;;;;;;15.08;11.33;;;;;;;13.76;81.93;99201.48;1762014;81;21236;-83
2023/03/27 08:54:08;;;;;;;11.33;8.60;;;;;;;13.91;79.51;99197.02;1708950;82;21214;-82
2023/03/27 08:57:31;;;;;;;10.95;7.50;;;;;;;13.98;78.21;99199.73;1700928;83;21264;-81
2023/03/27 09:00:44;;;;;;;9.38;6.75;;;;;;;13.95;76.09;99202.38;1710754;83;21165;-82
2023/03/27 09:03:56;;;;;;;12.60;8.98;;;;;;;14.10;74.01;99202.56;1717781;83;21166;-82
2023/03/27 09:07:15;;;;;;;9.53;7.80;;;;;;;13.81;73.17;99207.15;1716986;83;21193;-82
2023/03/27 09:10:50;;;;;;;11.90;7.40;;;;;;;13.74;71.33;99209.66;1716937;82;21176;-82
2023/03/27 09:13:52;;;;;;;11.93;6.20;;;;;;;13.57;71.95;99211.27;1704330;84;21252;-82
2023/03/27 09:16:59;;;;;;;9.18;5.55;;;;;;;13.53;71.75;99208.11;1696391;84;21154;-82
2023/03/27 09:20:20;;;;;;;6.90;5.60;;;;;;;13.55;72.16;99214.24;1691878;84;22207;-83
2023/03/27 09:23:25;;;;;;;9.40;5.28;;;;;;;13.67;72.96;99219.31;1719347;82;21181;-82
2023/03/27 09:26:41;;;;;;;6.50;4.05;;;;;;;13.72;72.10;99213.98;1725758;82;21162;-82
2023/03/27 09:29:50;;;;;;;8.48;5.00;;;;;;;13.86;69.21;99231.75;1674025;82;21174;-82
2023/03/27 09:33:04;;;;;;;7.67;5.47;;;;;;;13.91;68.83;99227.80;1697585;84;21186;-82
2023/03/27 09:36:10;;;;;;;7.90;5.70;;;;;;;14.01;69.20;99232.25;1702280;84;21166;-82
2023/03/27 09:39:15;;;;;;;9.53;5.78;;;;;;;14.08;70.03;99237.71;1701740;84;21154;-83
2023/03/27 09:42:33;;;;;;;10.72;5.12;;;;;;;14.14;69.94;99232.14;1683448;84;21721;-82
2023/03/27 09:45:45;;;;;;;7.05;4.85;;;;;;;14.29;70.36;99232.62;1685532;84;21206;-83
2023/03/27 09:49:25;;;;;;;9.28;4.90;;;;;;;14.45;68.96;99236.71;1702219;83;21295;-83
2023/03/27 09:52:54;;;;;;;5.35;3.72;;;;;;;14.66;69.66;99234.07;1721903;82;21193;-84
2023/03/27 09:56:11;;;;;;;6.33;4.20;;;;;;;14.88;67.39;99234.46;1690448;84;21229;-83
2023/03/27 09:59:39;;;;;;;6.08;4.05;;;;;;;15.06;67.65;99234.45;1698037;84;21134;-82
2023/03/27 10:02:45;;;;;;;7.08;3.27;;;;;;;15.22;65.39;99225.23;1717304;83;21217;-82
2023/03/27 10:05:52;;;;;;;3.75;3.12;;;;;;;15.25;65.67;99230.28;1712846;83;21789;-82
2023/03/27 10:09:01;;;;;;;4.47;2.85;;;;;;;15.31;61.26;99227.97;1720676;83;21256;-82
2023/03/27 10:12:23;;;;;;;3.47;2.50;;;;;;;15.27;59.10;99229.50;1724033;83;21714;-82
2023/03/27 10:15:45;;;;;;;2.50;2.05;;;;;;;15.11;56.10;99232.91;1718407;83;21914;-82
2023/03/27 10:18:58;;;;;;;3.80;2.50;;;;;;;15.02;54.50;99236.52;1711640;83;21252;-82
2023/03/27 10:22:14;;;;;;;3.87;2.60;;;;;;;14.90;54.32;99235.06;1700026;83;21249;-82
2023/03/27 10:25:29;;;;;;;4.95;2.80;;;;;;;14.90;54.76;99235.59;1714009;83;21190;-82
2023/03/27 10:28:44;;;;;;;3.77;2.42;;;;;;;14.80;58.09;99233.39;1717527;83;21238;-83
2023/03/27 10:31:58;;;;;;;5.92;2.95;;;;;;;14.94;58.26;99235.45;1671148;85;21634;-83
2023/03/27 10:35:36;;;;;;;2.70;1.87;;;;;;;14.83;56.97;99239.28;1690202;84;21233;-83
2023/03/27 10:38:46;;;;;;;4.60;2.20;;;;;;;14.73;56.43;99238.98;1676662;84;21237;-83
2023/03/27 13:21:15;;;;;;;7.08;2.20;;;;;;;14.38;56.44;99250.22;1782546;79;28998;-80
2023/03/27 13:24:48;;;;;;;3.70;2.17;;;;;;;14.34;55.98;99245.69;1778075;80;21235;-86
2023/03/27 13:28:33;;;;;;;3.20;2.20;;;;;;;14.32;56.20;99249.22;1778147;80;21141;-80
2023/03/27 13:31:57;;;;;;;4.10;2.45;;;;;;;14.43;56.13;99245.71;1776585;80;21240;-79
2023/03/27 13:35:30;;;;;;;2.70;1.80;;;;;;;14.36;55.40;99245.48;1776306;80;21245;-87
2023/03/27 13:39:00;;;;;;;6.22;2.15;;;;;;;14.31;55.24;99242.04;1777391;80;21172;-80
2023/03/27 13:42:16;;;;;;;5.57;3.90;;;;;;;14.25;55.97;99240.17;1778001;80;21733;-88
2023/03/27 13:45:36;;;;;;;6.75;3.50;;;;;;;14.25;58.45;99247.05;1776242;80;21196;-86
2023/03/27 13:49:34;;;;;;;8.00;3.80;;;;;;;14.33;59.07;99244.02;1763835;80;21176;-87
2023/03/27 13:53:24;;;;;;;5.50;3.80;;;;;;;14.42;59.57;99241.28;1778059;80;21152;-82
2023/03/27 13:56:47;;;;;;;7.80;5.47;;;;;;;14.52;59.37;99247.67;1778218;80;21195;-85
2023/03/27 14:00:10;;;;;;;9.33;6.00;;;;;;;14.58;59.81;99245.38;1764430;80;21235;-86
2023/03/27 14:03:47;;;;;;;9.93;5.05;;;;;;;14.63;59.80;99237.81;1755309;80;21165;-86
2023/03/27 14:07:40;;;;;;;7.25;4.72;;;;;;;14.79;58.87;99241.34;1778215;80;21157;-79
2023/03/27 14:10:58;;;;;;;9.95;5.42;;;;;;;14.51;59.52;99247.37;1752391;80;21753;-79
2023/03/27 14:14:23;;;;;;;8.08;5.58;;;;;;;14.37;60.49;99243.88;1778244;80;21152;-86
2023/03/27 14:17:45;;;;;;;8.73;5.35;;;;;;;14.34;60.98;99237.44;1778262;80;21137;-80
2023/03/27 14:20:51;;;;;;;6.85;4.67;;;;;;;14.31;60.51;99242.04;1777156;80;21768;-80
2023/03/27 14:24:15;;;;;;;7.30;4.75;;;;;;;14.24;60.42;99242.62;1777656;81;21160;-80
2023/03/27 14:27:26;;;;;;;8.73;4.72;;;;;;;14.13;59.79;99242.00;1776082;80;21164;-86
2023/03/27 14:30:34;;;;;;;8.50;5.28;;;;;;;14.03;59.97;99242.51;1776619;81;21718;-79
2023/03/27 14:34:11;;;;;;;8.25;5.55;;;;;;;13.93;60.12;99241.64;1775505;81;21753;-80
2023/03/27 14:37:38;;;;;;;9.35;6.05;;;;;;;13.89;61.28;99238.19;1777658;81;21153;-80
2023/03/27 14:40:51;;;;;;;11.10;6.05;;;;;;;13.83;61.49;99238.52;1777811;81;21228;-86
2023/03/27 14:44:05;;;;;;;13.88;6.12;;;;;;;13.68;62.27;99244.34;1761259;81;21184;-80
2023/03/27 14:47:14;;;;;;;9.23;5.42;;;;;;;13.41;63.58;99238.20;1777169;81;21129;-81
2023/03/27 14:50:20;;;;;;;7.80;5.40;;;;;;;13.31;64.29;99233.70;1776560;80;21200;-86
2023/03/27 14:53:28;;;;;;;6.80;5.30;;;;;;;13.24;64.48;99229.63;1777616;81;21145;-86
2023/03/27 14:56:40;;;;;;;;;;;;;;;12.97;65.59;99233.00;1780305;80;21702;-80
2023/03/27 14:59:50;;;;;;;7.87;4.90;;;;;;;12.82;66.42;99224.73;1777841;81;20190;-86
2023/03/27 15:02:56;;;;;;;7.92;5.50;;;;;;;12.74;66.76;99225.28;1753240;81;21152;-80
2023/03/27 15:06:20;;;;;;;8.08;5.03;;;;;;;12.75;67.79;99226.12;1777515;81;21176;-86
2023/03/27 15:09:26;;;;;;;7.25;4.92;;;;;;;12.74;67.73;99224.44;1777558;81;21200;-87
2023/03/27 15:12:34;;;;;;;7.80;5.30;;;;;;;12.67;67.88;99225.01;1775560;81;21153;-86
2023/03/27 15:15:45;;;;;;;12.85;6.05;;;;;;;12.76;67.87;99225.92;1776077;81;21235;-80
2023/03/27 15:19:03;;;;;;;7.42;5.25;;;;;;;12.77;68.08;99224.02;1777714;81;21160;-80
2023/03/27 15:22:35;;;;;;;7.75;5.70;;;;;;;12.43;69.34;99228.77;1775796;80;21796;-86
2023/03/27 15:25:55;;;;;;;9.35;5.78;;;;;;;12.27;69.94;99231.41;1777879;80;21220;-80
2023/03/27 15:29:16;;;;;;;16.87;7.03;;;;;;;12.27;70.21;99233.31;1778079;80;21141;-79
2023/03/27 15:32:23;;;;;;;12.88;6.37;;;;;;;12.17;70.68;99237.87;1777898;80;21156;-84
2023/03/27 15:35:45;;;;;;;19.07;5.42;;;;;;;12.14;70.70;99238.81;1776824;80;21181;-86
2023/03/27 15:38:50;;;;;;;10.85;6.05;;;;;;;12.03;70.77;99238.94;1777797;80;21149;-80
2023/03/27 15:41:59;;;;;;;7.22;4.40;;;;;;;11.87;70.77;99234.73;1777914;80;21136;-87
2023/03/27 15:45:11;;;;;;;5.33;3.87;;;;;;;11.75;70.49;99233.63;1777968;80;21177;-81
2023/03/27 15:48:43;;;;;;;;;;;;;;;11.57;70.22;99236.98;1780694;80;21157;-86
2023/03/27 15:51:48;;;;;;;6.95;3.92;;;;;;;11.59;69.44;99240.91;1776996;80;20214;-88
2023/03/27 15:55:03;;;;;;;14.90;5.95;;;;;;;11.48;69.59;99246.48;1746099;82;21205;-88
2023/03/27 15:58:20;;;;;;;7.17;4.20;;;;;;;11.38;69.68;99244.64;1744459;82;21173;-80
2023/03/27 16:01:43;;;;;;;8.70;3.92;;;;;;;11.18;70.02;99242.70;1730651;82;21173;-80
2023/03/27 16:05:00;;;;;;;12.63;3.72;;;;;;;11.03;70.25;99242.03;1746086;82;21233;-87
2023/03/27 16:08:06;;;;;;;6.45;3.52;;;;;;;10.92;70.35;99244.84;1764120;79;21192;-87
2023/03/27 16:11:11;;;;;;;8.55;3.22;;;;;;;10.72;70.84;99249.36;1745841;82;21765;-80
2023/03/27 16:14:45;;;;;;;6.15;3.17;;;;;;;10.68;71.00;99248.07;1772809;79;21776;-80
2023/03/27 16:17:53;;;;;;;7.92;3.00;;;;;;;10.44;71.67;99251.66;1782464;80;21243;-87
2023/03/27 16:20:59;;;;;;;6.37;2.83;;;;;;;10.38;71.69;99256.53;1754923;81;21203;-86
2023/03/27 16:24:04;;;;;;;7.65;2.70;;;;;;;10.23;71.78;99265.34;1707103;82;21156;-80
2023/03/27 16:27:10;;;;;;;10.28;3.27;;;;;;;10.14;71.97;99264.64;1703667;84;21191;-86
2023/03/27 16:30:19;;;;;;;7.75;3.08;;;;;;;10.08;72.10;99271.44;1702642;84;21235;-87
2023/03/27 16:33:27;;;;;;;4.83;3.35;;;;;;;10.02;72.30;99274.94;1703397;84;21346;-86
2023/03/27 16:36:39;;;;;;;5.50;3.22;;;;;;;9.89;72.75;99277.91;1703403;84;21792;-86
2023/03/27 16:39:45;;;;;;;33.33;16.70;;;;;;;9.81;73.07;99282.13;1702969;84;21231;-79
2023/03/27 16:42:51;;;;;;;235.02;97.22;;;;;;;9.67;73.37;99276.22;1702157;84;21216;-87
2023/03/27 16:45:57;;;;;;;213.57;92.33;;;;;;;9.60;73.57;99272.61;1703389;84;21827;-87
2023/03/27 16:49:03;;;;;;;106.05;48.78;;;;;;;9.47;73.92;99272.78;1705073;84;21236;-79
2023/03/27 16:52:09;;;;;;;62.80;31.90;;;;;;;9.43;73.84;99272.84;1704302;84;21227;-86
2023/03/27 16:55:16;;;;;;;34.95;13.22;;;;;;;9.40;73.79;99275.11;1703535;84;21223;-86
2023/03/27 16:58:22;;;;;;;14.95;6.78;;;;;;;9.41;73.96;99272.20;1705128;84;21184;-86
2023/03/27 17:01:28;;;;;;;10.25;5.45;;;;;;;9.41;74.17;99272.20;1704926;84;21645;-79
2023/03/27 17:04:36;;;;;;;11.22;5.90;;;;;;;9.40;74.64;99273.74;1704918;84;21772;-86
2023/03/27 17:07:43;;;;;;;13.95;5.72;;;;;;;9.40;75.15;99284.66;1705190;84;21215;-79
2023/03/27 17:10:48;;;;;;;10.58;5.58;;;;;;;9.33;75.92;99278.30;1703650;84;21239;-86
2023/03/27 17:13:56;;;;;;;11.97;5.87;;;;;;;9.32;76.42;99287.53;1705267;84;21164;-86
2023/03/27 17:17:03;;;;;;;9.23;6.03;;;;;;;9.30;76.79;99283.61;1705293;84;21677;-79
2023/03/27 17:20:08;;;;;;;9.88;5.92;;;;;;;9.32;77.21;99289.73;1705223;84;21235;-79
2023/03/27 17:23:16;;;;;;;10.98;6.85;;;;;;;9.46;77.23;99286.63;1715917;81;21200;-85
2023/03/27 17:26:35;;;;;;;83.27;33.80;;;;;;;9.38;77.48;99278.04;1746383;82;21816;-87
2023/03/27 17:29:42;;;;;;;52.83;21.55;;;;;;;9.29;78.10;99280.56;1734344;82;21755;-80
2023/03/27 17:32:48;;;;;;;55.40;23.22;;;;;;;9.31;78.63;99274.91;1734497;82;21200;-79
2023/03/27 17:35:55;;;;;;;35.35;15.28;;;;;;;9.35;78.85;99283.87;1735766;82;21239;-79